WetterOnline ( https://www.wetteronline.de )

Wetter aktuell Weiden

Aktuelles Wetter: Weiden (439m)

6-stündlich | Neueste Meldungen
Ortszeit Temperatur Wetter
Mi, 28.09. 14:00 10.4° C wolkig
Mi, 28.09. 8:00 6.2° C leichter Regen
Mi, 28.09. 2:00 6.7° C bedeckt
Di, 27.09. 20:00 7.8° C bewölkt
Di, 27.09. 14:00 7.7° C leichter Regen
Di, 27.09. 8:00 8.7° C Regen
Di, 27.09. 2:00 10.1° C bewölkt
Mo, 26.09. 20:00 10.9° C wolkig
Ortszeit Temperatur Wetter
Mi, 28.09. 19:00 9.2° C leichter Regen
Mi, 28.09. 18:30 9.7° C bedeckt
Mi, 28.09. 18:20 9.7° C bedeckt
Mi, 28.09. 18:10 9.8° C Sprühregen
Mi, 28.09. 18:00 10.0° C bewölkt
Mi, 28.09. 17:50 10.0° C bewölkt
Mi, 28.09. 17:30 10.3° C bewölkt
Mi, 28.09. 17:00 10.9° C bewölkt
Mi, 28.09. 16:30 10.6° C wolkig
Mi, 28.09. 16:00 10.6° C bewölkt
Ortszeit Relative Feuchte Sichtweite
Mi, 28.09. 14:00 68% 45 km
Mi, 28.09. 8:00 93% 15 km
Mi, 28.09. 2:00 91% 50 km
Di, 27.09. 20:00 87% 50 km
Di, 27.09. 14:00 87% 7 km
Di, 27.09. 8:00 95% 35 km
Di, 27.09. 2:00 77% 55 km
Mo, 26.09. 20:00 71% 55 km
Ortszeit Relative Feuchte Sichtweite
Mi, 28.09. 19:00 78% 50 km
Mi, 28.09. 18:30 70% 65 km
Mi, 28.09. 18:20 70% -
Mi, 28.09. 18:10 70% -
Mi, 28.09. 18:00 68% >70 km
Mi, 28.09. 17:50 68% -
Mi, 28.09. 17:30 62% 60 km
Mi, 28.09. 17:00 61% 60 km
Mi, 28.09. 16:30 60% 60 km
Mi, 28.09. 16:00 59% 50 km
Ortszeit Niederschlagsmenge Niederschlagsart
Mi, 28.09. 14:00 2 l/m2 in 6 Std. Regen
Mi, 28.09. 8:00 8 l/m2 in 12 Std. Regen
Mi, 28.09. 2:00 0.3 l/m2 in 6 Std. Regen
Di, 27.09. 20:00 3 l/m2 in 12 Std. Regen
Di, 27.09. 14:00 1 l/m2 in 6 Std. Regen
Di, 27.09. 8:00 4 l/m2 in 12 Std. Regen
Di, 27.09. 2:00 1 l/m2 in 6 Std. Regen
Mo, 26.09. 20:00 0.1 l/m2 in 12 Std. -
Ortszeit Niederschlagsmenge Niederschlagsart
Mi, 28.09. 19:00 keine Meldung -
Mi, 28.09. 18:30 <0.05 l/m2 in 1 Std. Schneeregen
Mi, 28.09. 18:20 keine Meldung -
Mi, 28.09. 18:10 keine Meldung -
Mi, 28.09. 18:00 0.0 l/m2 in 1 Std. -
Mi, 28.09. 17:50 keine Meldung -
Mi, 28.09. 17:30 0.0 l/m2 in 1 Std. -
Mi, 28.09. 17:00 0.0 l/m2 in 1 Std. -
Mi, 28.09. 16:30 0.0 l/m2 in 1 Std. -
Mi, 28.09. 16:00 0.0 l/m2 in 1 Std. -
Ortszeit Stärke Spitze Richtung
km/h Bft. km/h Grad Sektor
Mi, 28.09. 14:00 14 3 36 260° W
Mi, 28.09. 8:00 7 2 22 120° SO
Mi, 28.09. 2:00 7 2 22 180° S
Di, 27.09. 20:00 7 2 32 200° S
Di, 27.09. 14:00 13 3 37 250° W
Di, 27.09. 8:00 9 2 30 200° S
Di, 27.09. 2:00 7 2 25 180° S
Mo, 26.09. 20:00 6 1 30 170° S
Ortszeit Stärke Spitze Richtung
km/h Bft. km/h Grad Sektor
Mi, 28.09. 19:00 4 1 14 220° SW
Mi, 28.09. 18:30 4 1 14 210° SW
Mi, 28.09. 18:20 4 1 - 210° SW
Mi, 28.09. 18:10 6 1 - 230° SW
Mi, 28.09. 18:00 4 1 14 230° SW
Mi, 28.09. 17:50 4 1 - 230° SW
Mi, 28.09. 17:30 6 1 15 230° SW
Mi, 28.09. 17:00 7 2 25 240° SW
Mi, 28.09. 16:30 14 3 25 270° W
Mi, 28.09. 16:00 11 2 36 270° W
Ortszeit Untergrenze Bedeckung Gattung
total tief tief mittel hoch
Mi, 28.09. 14:00 1440 m 6/8 5/8 - - -
Mi, 28.09. 8:00 510 m 8/8 8/8 - - -
Mi, 28.09. 2:00 480 m 8/8 8/8 - - -
Di, 27.09. 20:00 510 m 8/8 7/8 - - -
Di, 27.09. 14:00 690 m 8/8 8/8 - - -
Di, 27.09. 8:00 330 m 8/8 8/8 - - -
Di, 27.09. 2:00 1500 m 8/8 7/8 - - -
Mo, 26.09. 20:00 1500 m 7/8 1/8 - - -
Ortszeit Bedeckungsgrad in Achtel und Wolkenuntergrenze
Mi, 28.09. 19:00 4(1110m) 7(1350m) 8(1800m)
Mi, 28.09. 18:30 4(1110m) 5(1380m) 8(1800m)
Mi, 28.09. 18:20 4(1110m) 5(1380m) 8(1800m)
Mi, 28.09. 18:10 8
Mi, 28.09. 18:00 7(1500m) 8(7800m)
Mi, 28.09. 17:50 7(1500m) 8(7800m)
Mi, 28.09. 17:30 6(1500m) 7(8400m) 7(9000m)
Mi, 28.09. 17:00 6(1500m) 7(7800m) 7(8400m)
Mi, 28.09. 16:30 1(1080m) 4(1500m) 7(7800m)
Mi, 28.09. 16:00 6(1500m) 7(6900m) 7(7800m)
Ortszeit Luftdruck NN (hPa) Tendenz (hPa in 3 Std.)
Mi, 28.09. 14:00 998 + 1,2
Mi, 28.09. 8:00 997 - 2,4
Mi, 28.09. 2:00 1002 - 0,5
Di, 27.09. 20:00 1002 + 0,2
Di, 27.09. 14:00 1001 + 1,0
Di, 27.09. 8:00 998 - 0,4
Di, 27.09. 2:00 1000 - 2,9
Mo, 26.09. 20:00 1004 - 0,9
Ortszeit Luftdruck NN (hPa) Tendenz (hPa in 3 Std.)
Mi, 28.09. 19:00 1000 + 1,1
Mi, 28.09. 18:30 1000 + 0,9
Mi, 28.09. 18:20 1000 keine Meldung
Mi, 28.09. 18:10 1000 keine Meldung
Mi, 28.09. 18:00 999 + 1,1
Mi, 28.09. 17:50 999 keine Meldung
Mi, 28.09. 17:30 999 + 1,0
Mi, 28.09. 17:00 999 + 0,9
Mi, 28.09. 16:30 999 + 0,8
Mi, 28.09. 16:00 999 + 0,9
Ortszeit Schneehöhe (cm)
Mi, 28.09. 14:00 0
Mi, 28.09. 8:00 0
Mi, 28.09. 2:00 0
Di, 27.09. 20:00 0
Di, 27.09. 14:00 0
Di, 27.09. 8:00 0
Di, 27.09. 2:00 0
Mo, 26.09. 20:00 0
Ortszeit Schneehöhe (cm)
Mi, 28.09. 19:00 -
Mi, 28.09. 18:30 0
Mi, 28.09. 18:20 0
Mi, 28.09. 18:10 0
Mi, 28.09. 18:00 0
Mi, 28.09. 17:50 0
Mi, 28.09. 17:30 0
Mi, 28.09. 17:00 0
Mi, 28.09. 16:30 0
Mi, 28.09. 16:00 0
Link zu dieser Seite / Seite empfehlen

Das Wetter in ...